Time;durP1;ratioP1;P1;durP2;ratioP2;P2;SDS_P1;SDS_P2;PMS_P1;PMS_P2;Temp;Humidity;BMP_temperature;BMP_pressure;BME280_temperature;BME280_humidity;BME280_pressure;Samples;Min_cycle;Max_cycle;Signal;HPM_P1;HPM_P2
2021/08/11 00:02:07;;;;;;;8.90;6.18;;;;;;;19.21;57.83;101743.28;4981321;28;115292;-70
2021/08/11 00:04:34;;;;;;;9.63;6.05;;;;;;;19.19;58.17;101751.47;4985963;28;113870;-69
2021/08/11 00:07:02;;;;;;;8.25;5.22;;;;;;;19.17;57.96;101739.94;4975402;28;123981;-70
2021/08/11 00:09:29;;;;;;;9.07;5.78;;;;;;;19.15;58.18;101755.28;4980407;28;124892;-70
2021/08/11 00:11:57;;;;;;;8.25;6.13;;;;;;;19.14;58.01;101750.91;4979166;28;114567;-70
2021/08/11 00:14:25;;;;;;;6.40;5.00;;;;;;;19.11;57.82;101753.78;4979007;28;112964;-69
2021/08/11 00:16:53;;;;;;;9.90;6.20;;;;;;;19.08;57.84;101754.00;4979985;28;123943;-70
2021/08/11 00:19:20;;;;;;;6.25;5.13;;;;;;;19.06;57.77;101747.84;4977775;28;123843;-69
2021/08/11 00:21:48;;;;;;;7.70;5.57;;;;;;;19.02;57.65;101744.53;4980779;28;114109;-69
2021/08/11 00:24:16;;;;;;;7.45;5.32;;;;;;;18.98;57.87;101750.19;4975635;28;114091;-70
2021/08/11 00:26:43;;;;;;;7.28;5.28;;;;;;;18.94;57.73;101748.69;4976773;28;124011;-69
2021/08/11 00:29:10;;;;;;;8.20;5.32;;;;;;;18.91;57.94;101740.81;4981462;28;124204;-70
2021/08/11 00:31:37;;;;;;;8.27;5.57;;;;;;;18.89;57.90;101753.47;4982118;28;114223;-70
2021/08/11 00:34:04;;;;;;;6.68;4.90;;;;;;;18.86;57.96;101754.56;4978299;28;114109;-70
2021/08/11 00:36:32;;;;;;;7.68;5.50;;;;;;;18.81;57.96;101754.84;4983289;28;123171;-70
2021/08/11 00:39:00;;;;;;;7.78;4.70;;;;;;;18.80;57.99;101750.44;4979755;28;123013;-70
2021/08/11 00:41:27;;;;;;;7.40;5.20;;;;;;;18.78;58.02;101763.09;4979442;28;113975;-69
2021/08/11 00:43:55;;;;;;;8.27;5.10;;;;;;;18.74;58.07;101750.81;4984827;28;112977;-69
2021/08/11 00:46:22;;;;;;;8.75;5.47;;;;;;;18.71;58.02;101750.16;4982007;28;124792;-69
2021/08/11 00:48:49;;;;;;;7.10;5.00;;;;;;;18.68;58.02;101753.88;4981957;28;123117;-69
2021/08/11 00:51:19;;;;;;;6.68;4.97;;;;;;;18.66;58.01;101747.75;4987232;28;115031;-70
2021/08/11 00:53:52;;;;;;;7.57;5.18;;;;;;;18.63;58.36;101745.28;4982602;28;113550;-70
2021/08/11 00:56:22;;;;;;;8.13;5.50;;;;;;;18.59;58.35;101746.44;4980982;28;123238;-70
2021/08/11 00:58:52;;;;;;;7.60;5.32;;;;;;;18.58;58.60;101744.72;4984766;28;123206;-70
2021/08/11 01:01:23;;;;;;;8.00;5.60;;;;;;;18.57;58.46;101748.34;4977986;28;113495;-70
2021/08/11 01:03:54;;;;;;;7.38;5.10;;;;;;;18.57;58.64;101753.72;4981953;28;113873;-70
2021/08/11 01:06:23;;;;;;;7.65;5.57;;;;;;;18.56;58.50;101749.31;4979594;28;122972;-70
2021/08/11 01:08:54;;;;;;;8.43;5.55;;;;;;;18.55;58.60;101750.28;4980930;28;123110;-70
2021/08/11 01:11:23;;;;;;;7.80;5.63;;;;;;;18.54;58.67;101745.88;4964613;28;113161;-70
2021/08/11 01:13:51;;;;;;;9.00;5.32;;;;;;;18.54;58.74;101753.94;4982768;28;113147;-69
2021/08/11 01:16:18;;;;;;;8.93;5.68;;;;;;;18.53;58.74;101752.19;4983432;28;123164;-69
2021/08/11 01:18:46;;;;;;;8.38;5.47;;;;;;;18.49;58.70;101747.00;4987655;28;123126;-69
2021/08/11 01:21:32;;;;;;;9.95;5.65;;;;;;;18.46;58.82;101752.59;4970286;28;113937;-70
2021/08/11 01:24:28;;;;;;;9.35;5.72;;;;;;;18.45;58.76;101750.84;4986146;28;113293;-69
2021/08/11 01:27:15;;;;;;;8.93;5.70;;;;;;;18.43;58.80;101742.06;4977148;28;124192;-70
2021/08/11 01:30:11;;;;;;;12.20;5.95;;;;;;;18.42;58.77;101745.72;4988955;28;122987;-69
2021/08/11 01:32:56;;;;;;;9.48;5.38;;;;;;;18.39;58.68;101750.41;4982928;28;113418;-69
2021/08/11 01:35:39;;;;;;;7.22;4.18;;;;;;;18.36;58.62;101751.44;4990458;28;113242;-69
2021/08/11 01:38:14;;;;;;;6.10;3.67;;;;;;;18.32;58.73;101752.59;4986309;28;127237;-69
2021/08/11 01:40:55;;;;;;;8.75;4.30;;;;;;;18.29;58.89;101752.81;4976557;28;123055;-69
2021/08/11 01:43:26;;;;;;;10.35;4.70;;;;;;;18.26;58.90;101750.31;4987295;28;114337;-69
2021/08/11 01:45:57;;;;;;;10.13;4.40;;;;;;;18.25;58.99;101753.94;4983717;28;114308;-69
2021/08/11 01:48:27;;;;;;;11.68;4.97;;;;;;;18.24;58.99;101757.59;4985535;28;123039;-69
2021/08/11 01:51:00;;;;;;;8.50;4.80;;;;;;;18.21;58.84;101763.13;4968076;28;126459;-70
2021/08/11 01:53:31;;;;;;;10.75;4.95;;;;;;;18.20;58.99;101756.06;4981121;28;112377;-69
2021/08/11 01:56:03;;;;;;;12.15;5.30;;;;;;;18.18;59.18;101758.00;4981552;28;113275;-70
2021/08/11 01:58:41;;;;;;;13.48;4.90;;;;;;;18.17;59.16;101761.63;4988837;28;126937;-70
2021/08/11 02:01:11;;;;;;;10.05;4.90;;;;;;;18.16;59.30;101759.88;4985430;28;123189;-70
2021/08/11 02:03:42;;;;;;;10.00;5.15;;;;;;;18.15;59.44;101763.53;4965665;28;113486;-70
2021/08/11 02:06:10;;;;;;;10.68;4.75;;;;;;;18.14;59.49;101761.78;4987241;28;113274;-69
2021/08/11 02:08:42;;;;;;;16.63;5.47;;;;;;;18.13;59.66;101755.56;4981818;28;123430;-70
2021/08/11 02:11:13;;;;;;;12.90;5.93;;;;;;;18.15;59.63;101747.44;4985142;28;122720;-70
2021/08/11 02:13:41;;;;;;;11.82;5.65;;;;;;;18.16;59.90;101755.41;4982558;28;113662;-70
2021/08/11 02:16:10;;;;;;;15.90;5.95;;;;;;;18.17;59.94;101751.75;4983979;28;112632;-70
2021/08/11 02:18:38;;;;;;;14.82;6.03;;;;;;;18.18;60.16;101748.13;4984838;28;124088;-70
2021/08/11 02:21:05;;;;;;;12.60;5.85;;;;;;;18.21;60.00;101749.72;4984918;28;122999;-70
2021/08/11 02:23:35;;;;;;;11.23;5.80;;;;;;;18.23;60.45;101750.50;4982881;28;113391;-70
2021/08/11 02:26:16;;;;;;;12.68;6.55;;;;;;;18.25;60.28;101753.94;4983760;28;114758;-70
2021/08/11 02:29:12;;;;;;;9.82;6.30;;;;;;;18.28;60.23;101753.75;4975618;28;123272;-70
2021/08/11 02:31:58;;;;;;;9.07;5.72;;;;;;;18.32;60.45;101751.75;4979343;28;123786;-70
2021/08/11 02:34:33;;;;;;;8.50;5.35;;;;;;;18.34;60.60;101748.00;4979697;28;114490;-70
2021/08/11 02:37:09;;;;;;;11.05;5.38;;;;;;;18.37;60.59;101737.09;4958797;28;113938;-70
2021/08/11 02:40:04;;;;;;;9.20;5.45;;;;;;;18.41;60.69;101743.13;4981168;28;123708;-70
2021/08/11 02:42:45;;;;;;;11.73;5.50;;;;;;;18.43;60.64;101744.72;4975519;28;123096;-70
2021/08/11 02:45:18;;;;;;;11.88;6.00;;;;;;;18.43;60.72;101742.06;4979592;28;113159;-70
2021/08/11 02:47:48;;;;;;;8.40;5.55;;;;;;;18.46;60.63;101736.50;4963893;28;113191;-70
2021/08/11 02:50:16;;;;;;;7.93;5.30;;;;;;;18.47;60.98;101738.22;4973659;28;123423;-70
2021/08/11 02:52:48;;;;;;;8.13;4.97;;;;;;;18.48;60.91;101734.56;4976333;28;123457;-70
2021/08/11 02:55:16;;;;;;;10.48;5.45;;;;;;;18.49;61.01;101741.66;4987603;28;114380;-70
2021/08/11 02:57:45;;;;;;;8.77;4.85;;;;;;;18.51;61.08;101732.66;4981558;28;112970;-70
2021/08/11 03:00:14;;;;;;;6.00;4.78;;;;;;;18.52;60.92;101739.75;4969065;28;123673;-70
2021/08/11 03:02:43;;;;;;;6.18;4.85;;;;;;;18.54;60.89;101743.19;4971868;28;123667;-70
2021/08/11 03:05:12;;;;;;;6.28;4.50;;;;;;;18.54;60.91;101748.56;4973859;28;113095;-71
2021/08/11 03:07:43;;;;;;;5.57;4.70;;;;;;;18.54;60.98;101749.41;4982556;28;113301;-70
2021/08/11 03:10:11;;;;;;;6.43;4.72;;;;;;;18.56;60.99;101749.31;5002419;22;124307;-65
2021/08/11 03:12:39;;;;;;;9.25;5.18;;;;;;;18.54;60.79;101748.56;4988979;28;123074;-65
2021/08/11 03:15:07;;;;;;;6.25;4.70;;;;;;;18.53;60.80;101746.84;4986905;28;113929;-65
2021/08/11 03:17:37;;;;;;;6.07;4.80;;;;;;;18.52;60.69;101750.50;4992399;28;113163;-65
2021/08/11 03:20:06;;;;;;;5.90;4.65;;;;;;;18.51;60.56;101748.75;5007111;28;124244;-65
2021/08/11 03:22:33;;;;;;;5.72;4.30;;;;;;;18.49;60.59;101746.16;5003807;28;123669;-65
2021/08/11 03:25:00;;;;;;;6.75;4.22;;;;;;;18.47;60.43;101748.94;5002845;28;115319;-65
2021/08/11 03:27:28;;;;;;;5.82;4.72;;;;;;;18.43;60.30;101758.16;4992377;28;114766;-65
2021/08/11 03:29:55;;;;;;;5.35;4.25;;;;;;;18.42;60.19;101760.91;4998115;28;124211;-66
2021/08/11 03:32:24;;;;;;;5.88;4.65;;;;;;;18.37;60.11;101763.91;5005865;28;124427;-65
2021/08/11 03:34:51;;;;;;;5.53;4.35;;;;;;;18.34;60.18;101764.09;4971353;28;113521;-65
2021/08/11 03:37:19;;;;;;;6.30;4.75;;;;;;;18.30;60.29;101757.19;4978831;28;113288;-65
2021/08/11 03:39:49;;;;;;;5.63;4.47;;;;;;;18.24;60.27;101761.13;4992984;28;123196;-65
2021/08/11 03:42:17;;;;;;;6.85;4.60;;;;;;;18.22;60.33;101760.38;5004675;28;124305;-65
2021/08/11 03:44:45;;;;;;;5.88;4.82;;;;;;;18.18;60.51;101758.00;4990769;28;113341;-66
2021/08/11 03:47:12;;;;;;;8.13;4.63;;;;;;;18.13;60.18;101749.38;5004438;28;114200;-66
2021/08/11 03:49:39;;;;;;;11.63;4.78;;;;;;;18.09;60.56;101754.91;4970956;28;123654;-66
2021/08/11 03:52:09;;;;;;;11.98;5.07;;;;;;;18.06;60.46;101749.75;4989639;28;122842;-65
2021/08/11 03:54:37;;;;;;;9.10;4.30;;;;;;;18.02;60.42;101753.56;4975890;28;113300;-65
2021/08/11 03:57:04;;;;;;;16.88;4.70;;;;;;;17.99;60.71;101747.53;4973291;28;113502;-66
2021/08/11 03:59:32;;;;;;;14.10;4.20;;;;;;;17.93;60.70;101754.13;4996088;28;124811;-65
2021/08/11 04:02:01;;;;;;;11.82;4.15;;;;;;;17.88;60.53;101750.88;4985493;28;123110;-66
2021/08/11 04:04:28;;;;;;;6.13;4.40;;;;;;;17.82;60.50;101757.44;5003188;28;114676;-65
2021/08/11 04:06:55;;;;;;;5.93;4.65;;;;;;;17.76;60.47;101754.25;5005462;28;114354;-65
2021/08/11 04:09:22;;;;;;;8.98;4.13;;;;;;;17.68;60.71;101760.94;5002717;28;123844;-65
2021/08/11 04:11:49;;;;;;;8.05;4.10;;;;;;;17.63;60.84;101763.06;4999064;28;123680;-65
2021/08/11 04:14:16;;;;;;;4.95;3.72;;;;;;;17.62;60.88;101764.00;4992385;28;115464;-65
2021/08/11 04:16:44;;;;;;;5.30;4.25;;;;;;;17.62;61.08;101766.69;5005885;28;114897;-65
2021/08/11 04:19:11;;;;;;;9.55;4.53;;;;;;;17.63;61.05;101763.06;4986428;28;123993;-65
2021/08/11 04:21:38;;;;;;;7.68;4.18;;;;;;;17.63;60.82;101767.53;5006987;28;124002;-63
2021/08/11 04:24:05;;;;;;;5.68;4.25;;;;;;;17.60;61.00;101767.75;5002901;28;114924;-63
2021/08/11 04:26:32;;;;;;;8.80;4.75;;;;;;;17.57;60.79;101768.75;4993572;28;114779;-63
2021/08/11 04:28:59;;;;;;;6.10;4.20;;;;;;;17.52;60.63;101765.53;5002100;28;124695;-66
2021/08/11 04:31:26;;;;;;;9.55;4.35;;;;;;;17.49;60.77;101771.03;5009984;28;124612;-66
2021/08/11 04:33:53;;;;;;;7.45;4.35;;;;;;;17.47;60.96;101770.28;5003641;28;114259;-66
2021/08/11 04:36:20;;;;;;;6.43;4.63;;;;;;;17.46;60.89;101781.94;4988744;28;113652;-66
2021/08/11 04:38:48;;;;;;;8.63;4.55;;;;;;;17.45;60.82;101769.50;5000425;28;124733;-65
2021/08/11 04:41:16;;;;;;;9.48;4.97;;;;;;;17.42;60.86;101775.03;5006233;28;123608;-66
2021/08/11 04:43:43;;;;;;;10.27;5.30;;;;;;;17.39;60.96;101777.91;5003326;28;114599;-66
2021/08/11 04:46:11;;;;;;;9.60;5.18;;;;;;;17.37;60.89;101779.81;5005734;28;113713;-66
2021/08/11 04:48:38;;;;;;;8.52;5.20;;;;;;;17.34;60.99;101778.16;5005794;28;123896;-65
2021/08/11 04:51:06;;;;;;;9.57;5.63;;;;;;;17.32;60.93;101770.22;5003725;28;124625;-65
2021/08/11 04:53:34;;;;;;;7.60;5.10;;;;;;;17.32;61.29;101772.91;5010677;28;114574;-65
2021/08/11 04:56:02;;;;;;;7.35;5.07;;;;;;;17.34;61.25;101778.16;4987133;28;113791;-65
2021/08/11 04:58:29;;;;;;;6.43;4.90;;;;;;;17.36;61.27;101786.13;5005030;28;124057;-65
2021/08/11 05:00:56;;;;;;;6.38;5.07;;;;;;;17.37;61.43;101799.44;5006728;28;123891;-65
2021/08/11 05:03:23;;;;;;;6.88;4.97;;;;;;;17.41;61.49;101800.13;4984006;28;115099;-65
2021/08/11 05:05:50;;;;;;;9.00;5.13;;;;;;;17.44;61.47;101799.91;5001048;28;114733;-65
2021/08/11 05:08:17;;;;;;;7.63;5.10;;;;;;;17.46;61.37;101795.31;4985372;28;124644;-65
2021/08/11 05:10:44;;;;;;;5.95;4.72;;;;;;;17.47;61.23;101799.75;5000175;28;123804;-65
2021/08/11 05:13:13;;;;;;;5.38;4.22;;;;;;;17.48;61.16;101806.84;5004235;28;114917;-65
2021/08/11 05:15:41;;;;;;;6.38;4.57;;;;;;;17.45;61.15;101797.16;5008095;28;114286;-65
2021/08/11 05:18:08;;;;;;;6.68;4.70;;;;;;;17.43;61.07;101809.78;5008393;28;123789;-66
2021/08/11 05:20:35;;;;;;;9.63;4.53;;;;;;;17.42;61.18;101802.72;5009016;28;124540;-66
2021/08/11 05:23:03;;;;;;;7.25;5.15;;;;;;;17.42;61.23;101807.19;5008213;28;114721;-66
2021/08/11 05:25:30;;;;;;;7.18;4.72;;;;;;;17.44;61.32;101805.28;5010533;28;114528;-65
2021/08/11 05:27:57;;;;;;;6.85;4.45;;;;;;;17.46;61.25;101814.06;5007504;28;124137;-65
2021/08/11 05:30:24;;;;;;;8.15;4.45;;;;;;;17.43;61.04;101808.91;5004964;28;124078;-66
2021/08/11 05:32:51;;;;;;;7.05;4.47;;;;;;;17.40;61.27;101809.94;5008913;28;113727;-65
2021/08/11 05:35:19;;;;;;;5.80;4.78;;;;;;;17.42;61.32;101817.88;5009608;28;114322;-65
2021/08/11 05:37:46;;;;;;;6.10;4.25;;;;;;;17.46;61.51;101814.06;5006429;28;124547;-66
2021/08/11 05:40:16;;;;;;;6.03;4.32;;;;;;;17.49;61.30;101824.63;5002190;28;124450;-65
2021/08/11 05:42:43;;;;;;;5.88;4.22;;;;;;;17.49;61.22;101824.63;4984483;28;114610;-66
2021/08/11 05:45:11;;;;;;;5.57;4.55;;;;;;;17.48;61.10;101825.59;5005447;28;113735;-65
2021/08/11 05:47:39;;;;;;;8.68;4.97;;;;;;;17.49;61.25;101829.97;5009479;28;124477;-65
2021/08/11 05:50:07;;;;;;;6.93;4.90;;;;;;;17.52;61.56;101835.16;5006456;28;124007;-65
2021/08/11 05:52:34;;;;;;;6.72;4.50;;;;;;;17.53;61.64;101836.88;4990955;28;115638;-65
2021/08/11 05:55:01;;;;;;;7.20;5.03;;;;;;;17.59;61.54;101825.78;5010601;28;115332;-65
2021/08/11 05:57:30;;;;;;;6.32;4.97;;;;;;;17.65;61.64;101836.16;5008068;28;123953;-65
2021/08/11 05:59:57;;;;;;;7.70;5.47;;;;;;;17.72;61.92;101831.28;5001525;28;124766;-65
2021/08/11 06:02:24;;;;;;;8.52;5.82;;;;;;;17.78;61.88;101846.13;4984541;28;114780;-65
2021/08/11 06:05:10;;;;;;;7.93;5.82;;;;;;;17.85;61.78;101843.03;4977123;28;112993;-64
2021/08/11 06:07:39;;;;;;;9.63;6.32;;;;;;;17.91;61.82;101841.81;4999723;28;124353;-65
2021/08/11 06:10:07;;;;;;;10.65;7.00;;;;;;;18.00;62.04;101851.97;5003293;28;124062;-64
2021/08/11 06:12:34;;;;;;;10.63;6.78;;;;;;;18.09;62.10;101846.06;4989323;28;114958;-65
2021/08/11 06:15:02;;;;;;;8.70;6.35;;;;;;;18.21;62.36;101848.94;5003474;28;114121;-64
2021/08/11 06:17:31;;;;;;;9.65;6.60;;;;;;;18.31;62.20;101850.13;4983610;28;123023;-65
2021/08/11 06:19:59;;;;;;;10.63;6.05;;;;;;;18.40;62.13;101844.19;5007178;28;123804;-65
2021/08/11 06:22:27;;;;;;;8.70;5.80;;;;;;;18.51;62.25;101850.69;4994775;28;113317;-64
2021/08/11 06:24:54;;;;;;;9.15;6.80;;;;;;;18.61;62.24;101846.47;4998713;28;114083;-67
2021/08/11 06:27:21;;;;;;;10.63;6.88;;;;;;;18.71;62.30;101847.63;5009114;28;124363;-65
2021/08/11 06:29:49;;;;;;;8.88;6.50;;;;;;;18.81;62.24;101851.47;5008813;28;123822;-64
2021/08/11 06:32:16;;;;;;;9.63;6.32;;;;;;;18.91;62.25;101858.94;5008830;28;114239;-65
2021/08/11 06:34:44;;;;;;;10.18;6.63;;;;;;;19.00;62.03;101858.34;4992685;28;113148;-65
2021/08/11 06:37:11;;;;;;;10.05;6.68;;;;;;;19.07;61.92;101851.63;5009667;28;124342;-64
2021/08/11 06:39:39;;;;;;;10.15;7.38;;;;;;;19.13;61.73;101853.91;5008398;28;124010;-64
2021/08/11 06:42:06;;;;;;;10.48;7.43;;;;;;;19.21;61.85;101856.97;4975598;28;114362;-65
2021/08/11 06:44:56;;;;;;;11.05;7.65;;;;;;;19.29;61.99;101863.63;5005550;28;115185;-65
2021/08/11 06:47:23;;;;;;;10.85;7.50;;;;;;;19.34;61.91;101864.22;4992984;28;123189;-64
2021/08/11 06:49:50;;;;;;;10.20;7.07;;;;;;;19.41;61.91;101878.97;5010150;28;124401;-64
2021/08/11 06:52:18;;;;;;;11.63;7.45;;;;;;;19.49;61.91;101882.00;5013460;28;114495;-64
2021/08/11 06:54:45;;;;;;;12.00;7.50;;;;;;;19.58;61.91;101881.38;5007840;28;114307;-64
2021/08/11 06:57:12;;;;;;;10.82;7.30;;;;;;;19.69;62.03;101883.38;5010195;28;128008;-64
2021/08/11 06:59:39;;;;;;;11.05;7.40;;;;;;;19.81;62.01;101879.00;5006877;28;124713;-66
2021/08/11 07:02:07;;;;;;;10.48;7.18;;;;;;;19.95;62.00;101873.56;5008927;28;114723;-65
2021/08/11 07:04:34;;;;;;;13.40;7.95;;;;;;;20.09;62.11;101874.44;5007629;28;113968;-65
2021/08/11 07:07:02;;;;;;;11.65;7.55;;;;;;;20.24;62.00;101878.75;4991828;28;122938;-65
2021/08/11 07:09:30;;;;;;;11.23;7.43;;;;;;;20.40;61.93;101874.03;5008354;28;124611;-65
2021/08/11 07:11:57;;;;;;;11.07;8.00;;;;;;;20.56;61.97;101878.34;5009092;28;114823;-65
2021/08/11 07:14:24;;;;;;;11.25;7.70;;;;;;;20.72;62.01;101873.63;5009866;28;114529;-65
2021/08/11 07:16:51;;;;;;;12.32;7.90;;;;;;;20.89;61.73;101875.09;4994423;28;124143;-65
2021/08/11 07:19:18;;;;;;;11.38;7.88;;;;;;;21.08;61.56;101874.63;4991430;28;123066;-66
2021/08/11 07:21:45;;;;;;;12.40;7.63;;;;;;;21.26;61.52;101871.53;5003424;28;114611;-65
2021/08/11 07:24:13;;;;;;;11.80;7.95;;;;;;;21.45;61.29;101871.91;4987773;28;113794;-65
2021/08/11 07:26:40;;;;;;;10.85;7.45;;;;;;;21.66;61.41;101876.66;5009943;28;125277;-65
2021/08/11 07:29:07;;;;;;;12.07;8.52;;;;;;;21.85;60.91;101873.44;5012398;28;124143;-65
2021/08/11 07:31:34;;;;;;;12.13;8.07;;;;;;;22.01;60.69;101878.53;5012243;28;115345;-65
2021/08/11 07:34:02;;;;;;;13.27;8.80;;;;;;;22.14;60.56;101871.19;4994296;28;113933;-65
2021/08/11 07:36:29;;;;;;;15.13;9.63;;;;;;;22.28;60.15;101876.41;4995268;28;124389;-65
2021/08/11 07:38:56;;;;;;;13.40;8.80;;;;;;;22.42;59.77;101877.16;4999526;28;123963;-66
2021/08/11 07:41:23;;;;;;;11.45;8.57;;;;;;;22.54;59.62;101870.78;4994806;28;113245;-66
2021/08/11 07:43:50;;;;;;;12.35;8.18;;;;;;;22.68;59.57;101878.66;4984739;28;113848;-65
2021/08/11 07:46:17;;;;;;;13.50;9.18;;;;;;;22.81;59.26;101877.66;5006922;28;124107;-66
2021/08/11 07:48:45;;;;;;;13.02;8.45;;;;;;;22.94;59.25;101872.97;4990856;28;124808;-66
2021/08/11 07:51:12;;;;;;;13.27;8.30;;;;;;;23.07;58.80;101873.72;4991631;28;114478;-65
2021/08/11 07:53:39;;;;;;;12.60;8.25;;;;;;;23.19;58.43;101871.00;5002946;28;114085;-66
2021/08/11 07:56:06;;;;;;;12.98;8.30;;;;;;;23.32;58.24;101860.91;5001648;28;124769;-66
2021/08/11 07:58:35;;;;;;;13.25;8.50;;;;;;;23.44;57.94;101865.28;4998058;28;124245;-66
2021/08/11 08:01:02;;;;;;;13.85;8.75;;;;;;;23.52;57.76;101868.19;5009965;28;114216;-66
2021/08/11 08:03:30;;;;;;;11.98;8.25;;;;;;;23.64;57.72;101866.31;4989735;28;114068;-66
2021/08/11 08:05:57;;;;;;;12.70;8.40;;;;;;;23.75;57.30;101878.91;4998476;28;123904;-66
2021/08/11 08:08:25;;;;;;;12.18;8.68;;;;;;;23.86;57.20;101868.06;4979927;28;123937;-66
2021/08/11 08:10:52;;;;;;;14.70;8.88;;;;;;;24.01;56.83;101875.88;4995012;28;113018;-66
2021/08/11 08:13:20;;;;;;;16.05;8.98;;;;;;;24.11;56.60;101876.81;5009408;28;114201;-65
2021/08/11 08:15:48;;;;;;;16.30;10.27;;;;;;;24.21;56.45;101869.59;5010032;28;124178;-66
2021/08/11 08:18:22;;;;;;;15.25;10.35;;;;;;;24.33;56.41;101877.66;5008415;28;123732;-66
2021/08/11 08:20:53;;;;;;;13.82;9.65;;;;;;;24.44;56.18;101880.28;4992699;28;115115;-66
2021/08/11 08:23:22;;;;;;;16.00;10.23;;;;;;;24.56;55.56;101868.38;4996729;28;115018;-66
2021/08/11 08:25:49;;;;;;;14.32;10.23;;;;;;;24.68;55.43;101864.59;4976583;28;123003;-65
2021/08/11 08:28:17;;;;;;;14.85;9.77;;;;;;;24.80;55.46;101869.91;4994123;28;122846;-66
2021/08/11 08:30:45;;;;;;;16.65;9.80;;;;;;;24.93;55.18;101875.94;5010461;28;114642;-66
2021/08/11 08:33:13;;;;;;;16.08;10.45;;;;;;;25.01;55.09;101872.53;5004916;28;114062;-66
2021/08/11 08:35:41;;;;;;;14.88;10.00;;;;;;;25.06;54.88;101879.25;5000960;28;124071;-66
2021/08/11 08:38:08;;;;;;;17.10;10.10;;;;;;;25.15;54.64;101884.88;5009321;28;124069;-66
2021/08/11 08:40:38;;;;;;;16.05;9.82;;;;;;;25.28;54.91;101885.50;5009746;28;114907;-66
2021/08/11 08:43:06;;;;;;;16.25;10.73;;;;;;;25.41;54.39;101880.66;4991713;28;114135;-66
2021/08/11 08:45:35;;;;;;;15.80;10.52;;;;;;;25.51;53.82;101875.22;5009444;28;124500;-66
2021/08/11 08:48:04;;;;;;;15.88;10.93;;;;;;;25.55;53.79;101881.22;5008467;28;123731;-66
2021/08/11 08:50:33;;;;;;;17.45;10.63;;;;;;;25.57;53.15;101879.22;4992140;28;114376;-66
2021/08/11 08:53:04;;;;;;;15.60;10.05;;;;;;;25.58;53.25;101889.06;4991445;28;114283;-66
2021/08/11 08:55:32;;;;;;;14.98;9.93;;;;;;;25.58;53.23;101884.53;5009628;28;124206;-66
2021/08/11 08:58:02;;;;;;;16.60;9.88;;;;;;;25.59;52.55;101880.78;5009066;28;123775;-66
2021/08/11 09:00:31;;;;;;;14.10;9.40;;;;;;;25.62;52.70;101877.81;4993571;28;113519;-66
2021/08/11 09:02:59;;;;;;;13.43;9.02;;;;;;;25.66;52.81;101883.81;5009528;28;114071;-66
2021/08/11 09:05:28;;;;;;;12.80;8.70;;;;;;;25.72;52.97;101883.22;5008864;28;124423;-66
2021/08/11 09:07:55;;;;;;;15.05;9.35;;;;;;;25.78;52.65;101888.06;4994397;28;123900;-66
2021/08/11 09:10:31;;;;;;;15.35;9.23;;;;;;;25.82;52.85;101880.50;5009398;28;116003;-66
2021/08/11 09:13:08;;;;;;;14.18;8.98;;;;;;;25.89;52.42;101883.50;4997495;28;113969;-66
2021/08/11 09:15:42;;;;;;;12.70;9.02;;;;;;;25.97;52.54;101887.22;5010550;28;124209;-66
2021/08/11 09:18:24;;;;;;;15.50;9.18;;;;;;;26.05;52.33;101883.81;5012068;28;123642;-66
2021/08/11 09:21:03;;;;;;;14.02;9.02;;;;;;;26.09;52.28;101890.66;4998120;28;115287;-64
2021/08/11 09:23:35;;;;;;;13.70;9.55;;;;;;;26.13;52.37;101889.38;4994695;28;113907;-64
2021/08/11 09:26:05;;;;;;;13.57;8.30;;;;;;;26.15;52.47;101890.06;5014013;28;124009;-64
2021/08/11 09:28:35;;;;;;;13.45;8.98;;;;;;;26.21;52.54;101884.06;5012515;28;123846;-63
2021/08/11 09:31:23;;;;;;;13.32;8.98;;;;;;;26.23;52.38;101887.47;5011412;28;114475;-63
2021/08/11 09:33:57;;;;;;;11.68;7.95;;;;;;;26.28;52.56;101883.50;4993342;28;114411;-65
2021/08/11 09:36:24;;;;;;;10.68;7.18;;;;;;;26.32;52.21;101887.63;4996027;28;124140;-64
2021/08/11 09:39:03;;;;;;;18.63;11.23;;;;;;;26.37;52.88;101882.56;5002753;28;124558;-63
2021/08/11 09:41:34;;;;;;;16.65;10.57;;;;;;;26.44;52.71;101883.72;4992545;28;114288;-63
2021/08/11 09:44:04;;;;;;;16.38;10.27;;;;;;;26.46;52.29;101876.25;5000713;28;113978;-63
2021/08/11 09:46:32;;;;;;;17.05;10.63;;;;;;;26.41;51.96;101884.03;4994296;28;124744;-64
2021/08/11 09:49:00;;;;;;;14.63;9.60;;;;;;;26.32;51.86;101879.47;4994271;28;123945;-64
2021/08/11 09:51:27;;;;;;;15.18;9.75;;;;;;;26.26;52.11;101890.91;4991564;28;114207;-64
2021/08/11 09:53:54;;;;;;;13.90;8.40;;;;;;;26.16;52.08;101891.81;4973795;28;114737;-64
2021/08/11 09:56:32;;;;;;;13.90;9.05;;;;;;;26.12;51.94;101884.94;4993683;28;124355;-64
2021/08/11 09:59:05;;;;;;;13.13;8.35;;;;;;;26.12;52.14;101884.94;4991683;28;123988;-64
2021/08/11 10:01:32;;;;;;;13.35;8.00;;;;;;;26.19;52.37;101886.06;4988920;28;114487;-64
2021/08/11 10:04:06;;;;;;;13.82;8.07;;;;;;;26.28;52.28;101878.06;5010545;28;114831;-64
2021/08/11 10:06:39;;;;;;;12.48;7.35;;;;;;;26.34;51.92;101882.91;4996455;28;123524;-64
2021/08/11 10:09:21;;;;;;;12.05;7.70;;;;;;;26.44;52.41;101883.72;4976318;28;122678;-64
2021/08/11 10:11:53;;;;;;;11.63;7.28;;;;;;;26.59;52.07;101890.41;5004852;28;114123;-65
2021/08/11 10:14:25;;;;;;;10.75;7.38;;;;;;;26.73;51.59;101890.91;4995196;28;113115;-65
2021/08/11 10:16:54;;;;;;;11.07;7.32;;;;;;;26.84;51.28;101901.59;5010459;28;124998;-65
2021/08/11 10:19:23;;;;;;;10.95;7.45;;;;;;;26.92;51.13;101888.13;5007694;28;124747;-65
2021/08/11 10:22:06;;;;;;;9.13;6.72;;;;;;;27.03;51.30;101894.34;5011334;28;114135;-64
2021/08/11 10:24:35;;;;;;;8.80;6.63;;;;;;;27.18;51.26;101901.00;4992032;28;113453;-64
2021/08/11 10:27:07;;;;;;;10.77;7.28;;;;;;;27.32;51.21;101897.78;4985995;28;123468;-64
2021/08/11 10:29:38;;;;;;;9.10;6.32;;;;;;;27.46;50.83;101895.56;5000735;28;123732;-64
2021/08/11 10:32:09;;;;;;;8.90;5.93;;;;;;;27.59;50.39;101901.47;5001683;28;114089;-64
2021/08/11 10:34:39;;;;;;;8.40;6.20;;;;;;;27.69;50.09;101895.94;4984061;28;112963;-65
2021/08/11 10:37:07;;;;;;;6.22;5.10;;;;;;;27.75;49.29;101901.63;5001110;28;124753;-66
2021/08/11 10:39:36;;;;;;;7.63;5.70;;;;;;;27.79;49.14;101904.03;4971636;28;96779;-65
2021/08/11 10:42:11;;;;;;;9.07;5.85;;;;;;;27.80;49.21;101897.56;4999211;28;114551;-66
2021/08/11 10:44:39;;;;;;;8.15;5.50;;;;;;;27.85;48.29;101895.25;5001952;28;113778;-66
2021/08/11 10:47:08;;;;;;;7.38;5.78;;;;;;;27.85;48.40;101900.69;5003915;28;123193;-65
2021/08/11 10:50:09;;;;;;;6.97;5.20;;;;;;;27.88;48.20;101900.38;5002213;28;124649;-65
2021/08/11 10:52:37;;;;;;;5.93;3.90;;;;;;;27.92;47.58;101901.81;4995133;28;115235;-65
2021/08/11 10:55:06;;;;;;;5.03;3.70;;;;;;;27.94;47.03;101899.78;4998621;28;114963;-66
2021/08/11 10:57:40;;;;;;;5.15;4.28;;;;;;;27.95;46.70;101888.72;4981653;28;123272;-66
2021/08/11 11:00:08;;;;;;;5.30;3.75;;;;;;;27.99;47.19;101892.00;4997717;28;123921;-65
2021/08/11 11:02:42;;;;;;;6.05;4.55;;;;;;;28.06;46.73;101895.78;4982079;28;114342;-66
2021/08/11 11:05:22;;;;;;;6.40;4.80;;;;;;;28.07;46.51;101880.31;4998741;28;113876;-65
2021/08/11 11:08:16;;;;;;;6.22;4.50;;;;;;;28.03;46.51;101882.50;5001871;28;124424;-65
2021/08/11 11:10:45;;;;;;;6.78;4.88;;;;;;;28.06;46.39;101876.72;4973730;28;124541;-65
2021/08/11 11:13:32;;;;;;;6.07;4.57;;;;;;;28.10;45.80;101883.53;4986279;28;113363;-65
2021/08/11 11:16:03;;;;;;;5.65;4.15;;;;;;;28.14;45.54;101890.41;4998939;28;114054;-65
2021/08/11 11:18:30;;;;;;;6.30;4.13;;;;;;;28.21;45.26;101884.31;4980343;28;124042;-65
2021/08/11 11:20:58;;;;;;;5.20;3.40;;;;;;;28.27;45.03;101883.66;4982379;28;122792;-66
2021/08/11 11:23:32;;;;;;;5.88;3.90;;;;;;;28.32;45.06;101892.22;5001580;28;114430;-65
2021/08/11 11:26:10;;;;;;;4.78;3.65;;;;;;;28.41;45.01;101885.81;4980991;28;114247;-66
2021/08/11 11:29:02;;;;;;;4.95;3.70;;;;;;;28.51;44.72;101886.53;4990152;28;125390;-66